Time;durP1;ratioP1;P1;durP2;ratioP2;P2;SDS_P1;SDS_P2;PMS_P1;PMS_P2;Temp;Humidity;BMP_temperature;BMP_pressure;BME280_temperature;BME280_humidity;BME280_pressure;Samples;Min_cycle;Max_cycle;Signal;HPM_P1;HPM_P2
2022/05/15 00:01:26;;;;;;;29.85;7.43;;;;;;;;;;5040227;28;20041;-72
2022/05/15 00:03:52;;;;;;;21.50;6.53;;;;;;;;;;5036717;28;20053;-73
2022/05/15 00:06:18;;;;;;;33.05;8.38;;;;;;;;;;5035991;28;20076;-73
2022/05/15 00:08:45;;;;;;;25.38;7.13;;;;;;;;;;5034378;28;20049;-72
2022/05/15 00:11:12;;;;;;;34.60;7.70;;;;;;;;;;5034880;28;20050;-73
2022/05/15 00:13:38;;;;;;;25.58;7.90;;;;;;;;;;5037338;28;20045;-72
2022/05/15 00:16:05;;;;;;;25.80;7.07;;;;;;;;;;5036442;28;20046;-73
2022/05/15 00:18:31;;;;;;;31.55;7.38;;;;;;;;;;5037825;28;20071;-73
2022/05/15 00:20:57;;;;;;;29.27;7.65;;;;;;;;;;5019430;28;20057;-73
2022/05/15 00:23:24;;;;;;;31.63;8.20;;;;;;;;;;5037642;28;20118;-73
2022/05/15 00:25:50;;;;;;;29.15;7.57;;;;;;;;;;5039699;28;20041;-73
2022/05/15 00:28:16;;;;;;;28.60;6.80;;;;;;;;;;5037156;28;20037;-72
2022/05/15 00:30:43;;;;;;;26.80;6.88;;;;;;;;;;5037496;28;20104;-72
2022/05/15 00:33:09;;;;;;;31.55;7.95;;;;;;;;;;5039450;28;20120;-73
2022/05/15 00:35:35;;;;;;;32.92;8.00;;;;;;;;;;5036253;28;20399;-73
2022/05/15 00:38:02;;;;;;;30.45;8.75;;;;;;;;;;5037046;28;20488;-73
2022/05/15 00:40:29;;;;;;;28.40;7.35;;;;;;;;;;5031913;28;20103;-73
2022/05/15 00:42:55;;;;;;;26.98;7.43;;;;;;;;;;5018153;28;20091;-73
2022/05/15 00:45:22;;;;;;;35.25;7.95;;;;;;;;;;5033978;28;20102;-73
2022/05/15 00:47:48;;;;;;;28.45;8.38;;;;;;;;;;5036007;28;20049;-74
2022/05/15 00:50:18;;;;;;;31.08;7.65;;;;;;;;;;5019695;28;20484;-73
2022/05/15 00:52:46;;;;;;;31.90;8.00;;;;;;;;;;5036700;28;20044;-73
2022/05/15 00:55:19;;;;;;;29.58;8.00;;;;;;;;;;5035283;28;20042;-73
2022/05/15 00:57:49;;;;;;;28.83;7.90;;;;;;;;;;5037382;28;20044;-73
2022/05/15 01:00:17;;;;;;;29.92;7.55;;;;;;;;;;5019963;28;20136;-73
2022/05/15 01:02:47;;;;;;;27.10;7.50;;;;;;;;;;5037187;28;20088;-72
2022/05/15 01:05:15;;;;;;;25.45;7.63;;;;;;;;;;5034815;28;20088;-72
2022/05/15 01:07:41;;;;;;;27.77;8.20;;;;;;;;;;5036675;28;20045;-73
2022/05/15 01:10:08;;;;;;;26.73;7.20;;;;;;;;;;5037105;28;20403;-71
2022/05/15 01:12:35;;;;;;;22.65;6.68;;;;;;;;;;5033308;28;20037;-72
2022/05/15 01:15:01;;;;;;;32.40;7.80;;;;;;;;;;5036024;28;20966;-72
2022/05/15 01:17:27;;;;;;;27.38;7.72;;;;;;;;;;5036229;28;20175;-73
2022/05/15 01:20:00;;;;;;;27.30;8.25;;;;;;;;;;5015581;28;20077;-73
2022/05/15 01:22:26;;;;;;;29.30;7.63;;;;;;;;;;5017465;28;20129;-72
2022/05/15 01:24:52;;;;;;;40.30;8.07;;;;;;;;;;5035564;28;20108;-73
2022/05/15 01:27:18;;;;;;;27.58;7.72;;;;;;;;;;5037532;28;20108;-72
2022/05/15 01:29:46;;;;;;;27.60;7.72;;;;;;;;;;5016255;28;20656;-72
2022/05/15 01:32:13;;;;;;;27.15;7.70;;;;;;;;;;5031178;28;20053;-72
2022/05/15 01:34:40;;;;;;;30.52;7.38;;;;;;;;;;5036896;28;20041;-72
2022/05/15 01:37:07;;;;;;;27.05;8.85;;;;;;;;;;5034088;28;20046;-73
2022/05/15 01:39:33;;;;;;;33.55;8.55;;;;;;;;;;5035697;28;20041;-72
2022/05/15 01:41:59;;;;;;;25.23;7.57;;;;;;;;;;5030993;28;20134;-72
2022/05/15 01:44:26;;;;;;;31.08;9.13;;;;;;;;;;5034243;28;20133;-73
2022/05/15 01:46:52;;;;;;;24.20;7.80;;;;;;;;;;5008267;28;20045;-73
2022/05/15 01:49:19;;;;;;;28.85;8.45;;;;;;;;;;5034944;28;20042;-72
2022/05/15 01:51:45;;;;;;;30.40;7.90;;;;;;;;;;5037352;28;20484;-73
2022/05/15 01:54:11;;;;;;;30.60;8.52;;;;;;;;;;5038330;28;20569;-73
2022/05/15 01:56:37;;;;;;;29.45;7.88;;;;;;;;;;5038212;28;20037;-73
2022/05/15 01:59:04;;;;;;;31.65;8.73;;;;;;;;;;5038779;28;20084;-73
2022/05/15 02:01:30;;;;;;;36.72;8.45;;;;;;;;;;5038383;28;20559;-73
2022/05/15 02:03:56;;;;;;;30.67;8.48;;;;;;;;;;5035792;28;20041;-73
2022/05/15 02:06:22;;;;;;;28.77;8.43;;;;;;;;;;5036385;28;20089;-73
2022/05/15 02:08:48;;;;;;;27.55;7.22;;;;;;;;;;5037720;28;20050;-72
2022/05/15 02:11:14;;;;;;;34.05;8.48;;;;;;;;;;5032188;28;20069;-73
2022/05/15 02:13:41;;;;;;;25.88;8.52;;;;;;;;;;5031954;28;20063;-72
2022/05/15 02:16:07;;;;;;;28.20;8.48;;;;;;;;;;5036458;28;20038;-72
2022/05/15 02:18:33;;;;;;;30.48;8.55;;;;;;;;;;5038184;28;20510;-72
2022/05/15 02:20:59;;;;;;;35.75;8.63;;;;;;;;;;5037331;28;20108;-73
2022/05/15 02:23:26;;;;;;;28.83;8.57;;;;;;;;;;5036463;28;20045;-73
2022/05/15 02:25:52;;;;;;;27.88;8.00;;;;;;;;;;5037072;28;20045;-73
2022/05/15 02:28:18;;;;;;;29.02;8.65;;;;;;;;;;5036864;28;20411;-72
2022/05/15 02:30:44;;;;;;;26.33;7.70;;;;;;;;;;5039797;28;20049;-72
2022/05/15 02:33:11;;;;;;;33.60;9.23;;;;;;;;;;5021576;28;20045;-73
2022/05/15 02:35:37;;;;;;;25.05;8.23;;;;;;;;;;5037977;28;20048;-72
2022/05/15 02:38:03;;;;;;;27.00;7.78;;;;;;;;;;5040008;28;20045;-73
2022/05/15 02:40:29;;;;;;;26.75;7.65;;;;;;;;;;5038772;28;20042;-72
2022/05/15 02:42:56;;;;;;;23.35;7.63;;;;;;;;;;5036908;28;20049;-72
2022/05/15 02:45:22;;;;;;;27.52;7.60;;;;;;;;;;5035658;28;20049;-72
2022/05/15 02:47:48;;;;;;;31.33;7.70;;;;;;;;;;5039446;28;20072;-73
2022/05/15 02:53:00;;;;;;;19.35;7.22;;;;;;;;;;5040237;28;20500;-73
2022/05/15 02:55:26;;;;;;;27.98;8.02;;;;;;;;;;5039069;28;20042;-72
2022/05/15 02:57:53;;;;;;;24.67;7.75;;;;;;;;;;5040457;28;20064;-74
2022/05/15 03:00:20;;;;;;;26.30;9.20;;;;;;;;;;5039429;28;20038;-73
2022/05/15 03:02:46;;;;;;;25.25;8.02;;;;;;;;;;5039214;28;20132;-73
2022/05/15 03:05:13;;;;;;;23.30;8.05;;;;;;;;;;5038085;28;20073;-73
2022/05/15 03:07:39;;;;;;;26.50;8.30;;;;;;;;;;5038720;28;20077;-72
2022/05/15 03:10:06;;;;;;;29.98;8.73;;;;;;;;;;5020885;28;20057;-73
2022/05/15 03:12:32;;;;;;;35.08;10.20;;;;;;;;;;5030082;28;20045;-73
2022/05/15 03:14:58;;;;;;;32.95;10.65;;;;;;;;;;5019336;28;20052;-73
2022/05/15 03:17:24;;;;;;;30.02;9.88;;;;;;;;;;5037921;28;20495;-74
2022/05/15 03:19:51;;;;;;;31.70;10.02;;;;;;;;;;5038172;28;20529;-73
2022/05/15 03:22:17;;;;;;;30.38;10.90;;;;;;;;;;5040320;28;20057;-73
2022/05/15 03:24:43;;;;;;;35.13;10.32;;;;;;;;;;5037232;28;20041;-73
2022/05/15 03:27:09;;;;;;;35.25;10.52;;;;;;;;;;5038143;28;20041;-72
2022/05/15 03:29:35;;;;;;;29.55;10.02;;;;;;;;;;5021090;28;20049;-72
2022/05/15 03:32:01;;;;;;;37.63;10.70;;;;;;;;;;5041147;28;20042;-72
2022/05/15 03:34:27;;;;;;;30.15;10.35;;;;;;;;;;5036632;28;20488;-73
2022/05/15 03:36:53;;;;;;;26.95;9.18;;;;;;;;;;5036015;28;20084;-73
2022/05/15 03:39:21;;;;;;;32.72;10.43;;;;;;;;;;5038523;28;20133;-72
2022/05/15 03:41:47;;;;;;;29.95;10.43;;;;;;;;;;5035671;28;20553;-72
2022/05/15 03:44:13;;;;;;;30.63;10.27;;;;;;;;;;5019758;28;20041;-72
2022/05/15 03:46:40;;;;;;;38.85;10.35;;;;;;;;;;5024911;28;20046;-72
2022/05/15 03:49:06;;;;;;;30.40;10.27;;;;;;;;;;5027620;28;20050;-73
2022/05/15 03:51:33;;;;;;;31.77;10.18;;;;;;;;;;5034311;28;20080;-73
2022/05/15 03:53:59;;;;;;;29.45;10.15;;;;;;;;;;5039503;28;20506;-72
2022/05/15 03:59:11;;;;;;;32.75;9.90;;;;;;;;;;5008775;28;20519;-73
2022/05/15 04:01:37;;;;;;;29.75;10.35;;;;;;;;;;5019580;28;20052;-71
2022/05/15 04:04:03;;;;;;;33.40;10.07;;;;;;;;;;5036781;28;20045;-72
2022/05/15 04:06:29;;;;;;;30.27;10.63;;;;;;;;;;5039677;28;20107;-73
2022/05/15 04:08:56;;;;;;;27.95;9.55;;;;;;;;;;5028625;28;20136;-73
2022/05/15 04:11:22;;;;;;;27.60;9.50;;;;;;;;;;5021725;28;20049;-72
2022/05/15 04:13:48;;;;;;;28.23;9.52;;;;;;;;;;5019570;28;20046;-73
2022/05/15 04:16:14;;;;;;;26.13;9.55;;;;;;;;;;5028159;28;20184;-73
2022/05/15 04:18:40;;;;;;;25.30;9.82;;;;;;;;;;5037338;28;20080;-72
2022/05/15 04:21:06;;;;;;;28.50;10.43;;;;;;;;;;5021754;28;20077;-72
2022/05/15 04:23:33;;;;;;;25.05;10.00;;;;;;;;;;5029644;28;20483;-72
2022/05/15 04:25:59;;;;;;;23.42;8.75;;;;;;;;;;5030652;28;20091;-71
2022/05/15 04:28:26;;;;;;;22.00;9.00;;;;;;;;;;5037076;28;20076;-73
2022/05/15 04:30:52;;;;;;;25.65;9.00;;;;;;;;;;5038119;28;20144;-73
2022/05/15 04:33:18;;;;;;;24.70;9.10;;;;;;;;;;5037791;28;20065;-72
2022/05/15 04:35:44;;;;;;;28.77;9.98;;;;;;;;;;5035231;28;20069;-72
2022/05/15 04:38:10;;;;;;;23.35;9.60;;;;;;;;;;5020725;28;20041;-73
2022/05/15 04:40:37;;;;;;;26.40;9.57;;;;;;;;;;5035672;28;20042;-73
2022/05/15 04:43:03;;;;;;;27.67;10.18;;;;;;;;;;5024959;28;20052;-73
2022/05/15 04:45:29;;;;;;;28.38;9.80;;;;;;;;;;5036720;28;21088;-72
2022/05/15 04:47:55;;;;;;;27.65;8.82;;;;;;;;;;5038190;28;20411;-72
2022/05/15 04:50:22;;;;;;;28.73;9.18;;;;;;;;;;5038331;28;20108;-72
2022/05/15 04:52:48;;;;;;;27.08;8.57;;;;;;;;;;5019948;28;20041;-73
2022/05/15 04:55:14;;;;;;;27.23;9.25;;;;;;;;;;5037451;28;20056;-73
2022/05/15 04:57:41;;;;;;;28.67;9.40;;;;;;;;;;5019931;28;20068;-73
2022/05/15 05:00:09;;;;;;;24.83;8.85;;;;;;;;;;5038158;28;20048;-73
2022/05/15 05:02:35;;;;;;;24.23;8.30;;;;;;;;;;5037697;28;20480;-72
2022/05/15 05:05:02;;;;;;;24.67;8.60;;;;;;;;;;5036807;28;20088;-72
2022/05/15 05:07:28;;;;;;;25.33;8.80;;;;;;;;;;5024986;28;20084;-73
2022/05/15 05:09:54;;;;;;;26.60;8.63;;;;;;;;;;5032856;28;20068;-73
2022/05/15 05:12:20;;;;;;;27.35;8.93;;;;;;;;;;5037425;28;20046;-72
2022/05/15 05:14:46;;;;;;;29.67;8.43;;;;;;;;;;5031735;28;20046;-73
2022/05/15 05:17:13;;;;;;;30.52;9.30;;;;;;;;;;5037300;28;20053;-73
2022/05/15 05:19:39;;;;;;;23.38;8.43;;;;;;;;;;5030235;28;20552;-73
2022/05/15 05:22:05;;;;;;;33.25;9.10;;;;;;;;;;5021843;28;20084;-73
2022/05/15 05:24:31;;;;;;;26.98;8.57;;;;;;;;;;5006749;28;20042;-72
2022/05/15 05:26:57;;;;;;;26.85;8.43;;;;;;;;;;5035798;28;20466;-73
2022/05/15 05:29:24;;;;;;;25.00;9.05;;;;;;;;;;5020743;28;20082;-73
2022/05/15 05:31:50;;;;;;;27.27;8.75;;;;;;;;;;5018549;28;20050;-73
2022/05/15 05:34:16;;;;;;;26.25;7.72;;;;;;;;;;5017971;28;20123;-73
2022/05/15 05:36:42;;;;;;;32.33;9.10;;;;;;;;;;5034784;28;20049;-73
2022/05/15 05:39:08;;;;;;;24.25;8.30;;;;;;;;;;5035646;28;20046;-73
2022/05/15 05:41:34;;;;;;;27.67;8.77;;;;;;;;;;5037730;28;20049;-72
2022/05/15 05:44:00;;;;;;;22.17;8.50;;;;;;;;;;5026138;28;20042;-74
2022/05/15 05:46:29;;;;;;;22.42;7.93;;;;;;;;;;5019980;28;20045;-73
2022/05/15 05:48:56;;;;;;;21.85;7.85;;;;;;;;;;5035747;28;20691;-73
2022/05/15 05:51:22;;;;;;;21.20;7.85;;;;;;;;;;5036890;28;20052;-73
2022/05/15 05:53:48;;;;;;;24.80;8.00;;;;;;;;;;5036002;28;20038;-72
2022/05/15 05:56:15;;;;;;;24.48;7.57;;;;;;;;;;5033203;28;20407;-72
2022/05/15 05:58:41;;;;;;;22.92;7.47;;;;;;;;;;5026713;28;20045;-73
2022/05/15 06:01:07;;;;;;;22.77;7.88;;;;;;;;;;5032392;28;20491;-73
2022/05/15 06:06:18;;;;;;;22.75;7.55;;;;;;;;;;5037708;28;20059;-73
2022/05/15 06:08:44;;;;;;;23.48;8.25;;;;;;;;;;5037844;28;20419;-73
2022/05/15 06:11:11;;;;;;;26.42;7.57;;;;;;;;;;5039852;28;20048;-74
2022/05/15 06:13:38;;;;;;;22.17;6.95;;;;;;;;;;5020316;28;20072;-72
2022/05/15 06:16:04;;;;;;;18.65;6.53;;;;;;;;;;5040753;28;20064;-74
2022/05/15 06:18:30;;;;;;;24.17;7.55;;;;;;;;;;5035834;28;20053;-73
2022/05/15 06:20:56;;;;;;;22.58;6.80;;;;;;;;;;5037782;28;20050;-73
2022/05/15 06:23:22;;;;;;;23.38;7.13;;;;;;;;;;5022369;28;20041;-73
2022/05/15 06:25:48;;;;;;;20.63;7.20;;;;;;;;;;5039166;28;20143;-73
2022/05/15 06:28:14;;;;;;;20.95;7.22;;;;;;;;;;5040549;28;20107;-73
2022/05/15 06:30:40;;;;;;;21.50;7.00;;;;;;;;;;5024395;28;20041;-74
2022/05/15 06:33:07;;;;;;;20.20;6.88;;;;;;;;;;5037169;28;20039;-74
2022/05/15 06:35:34;;;;;;;20.15;7.10;;;;;;;;;;5040022;28;20037;-73
2022/05/15 06:38:00;;;;;;;23.55;7.38;;;;;;;;;;5037608;28;20042;-74
2022/05/15 06:40:26;;;;;;;19.80;7.20;;;;;;;;;;5044862;28;20472;-74
2022/05/15 06:42:52;;;;;;;21.23;6.32;;;;;;;;;;5038141;28;20042;-73
2022/05/15 06:45:19;;;;;;;17.10;6.38;;;;;;;;;;5041499;28;20046;-75
2022/05/15 06:47:45;;;;;;;20.17;7.00;;;;;;;;;;5037772;28;20052;-75
2022/05/15 06:50:11;;;;;;;20.08;6.43;;;;;;;;;;5007748;28;20053;-75
2022/05/15 06:52:38;;;;;;;19.70;6.68;;;;;;;;;;5027432;28;20115;-75
2022/05/15 06:55:06;;;;;;;20.00;6.97;;;;;;;;;;5035853;28;20125;-76
2022/05/15 06:57:33;;;;;;;16.60;6.50;;;;;;;;;;5021926;28;20499;-76
2022/05/15 07:00:00;;;;;;;17.65;6.57;;;;;;;;;;5037905;28;20054;-74
2022/05/15 07:02:27;;;;;;;20.33;6.47;;;;;;;;;;5029800;28;20045;-76
2022/05/15 07:04:53;;;;;;;17.52;6.20;;;;;;;;;;5035868;28;20050;-74
2022/05/15 07:07:19;;;;;;;16.90;6.28;;;;;;;;;;5035711;28;20049;-75
2022/05/15 07:09:45;;;;;;;18.25;6.40;;;;;;;;;;5033071;28;20046;-75
2022/05/15 07:12:12;;;;;;;20.95;6.80;;;;;;;;;;5036602;28;20085;-75
2022/05/15 07:14:38;;;;;;;18.48;5.75;;;;;;;;;;5039319;28;20049;-75
2022/05/15 07:17:04;;;;;;;21.50;6.38;;;;;;;;;;5038216;28;20046;-75
2022/05/15 07:19:30;;;;;;;17.92;5.72;;;;;;;;;;5040488;28;20046;-75
2022/05/15 07:21:56;;;;;;;16.73;5.80;;;;;;;;;;5037298;28;20052;-75
2022/05/15 07:24:22;;;;;;;18.45;5.95;;;;;;;;;;5044628;28;20045;-76
2022/05/15 07:26:49;;;;;;;16.92;5.75;;;;;;;;;;5060093;28;20048;-76
2022/05/15 07:29:16;;;;;;;17.55;5.85;;;;;;;;;;5044671;28;20500;-75
2022/05/15 07:31:42;;;;;;;19.55;5.55;;;;;;;;;;5026528;28;20053;-75
2022/05/15 07:34:08;;;;;;;17.67;6.07;;;;;;;;;;5022050;28;20063;-76
2022/05/15 07:36:35;;;;;;;15.80;5.40;;;;;;;;;;5034548;28;20037;-75
2022/05/15 07:39:01;;;;;;;16.85;5.75;;;;;;;;;;5036681;28;20049;-75
2022/05/15 07:41:27;;;;;;;17.73;5.28;;;;;;;;;;5022802;28;20045;-71
2022/05/15 07:43:53;;;;;;;16.02;5.30;;;;;;;;;;5034602;28;20436;-70
2022/05/15 07:46:19;;;;;;;12.68;4.55;;;;;;;;;;5025897;28;20492;-71
2022/05/15 07:48:46;;;;;;;17.92;5.30;;;;;;;;;;5025259;28;20053;-71
2022/05/15 07:51:12;;;;;;;18.20;5.72;;;;;;;;;;5027614;28;20045;-71
2022/05/15 07:53:39;;;;;;;17.20;5.10;;;;;;;;;;5031857;28;20041;-72
2022/05/15 07:56:09;;;;;;;19.70;5.28;;;;;;;;;;5031408;28;20060;-71
2022/05/15 07:58:35;;;;;;;16.35;4.95;;;;;;;;;;5034644;28;20447;-70
2022/05/15 08:01:04;;;;;;;16.70;5.13;;;;;;;;;;5034763;28;20052;-71
2022/05/15 08:03:33;;;;;;;19.23;5.10;;;;;;;;;;5026893;28;20528;-70
2022/05/15 08:08:44;;;;;;;17.58;5.10;;;;;;;;;;5025956;28;20132;-71
2022/05/15 08:11:10;;;;;;;19.38;4.97;;;;;;;;;;5033882;28;20125;-70
2022/05/15 08:13:36;;;;;;;18.27;4.93;;;;;;;;;;5032141;28;20041;-69
2022/05/15 08:16:03;;;;;;;16.30;4.55;;;;;;;;;;5034054;28;20053;-78
2022/05/15 08:24:01;;;;;;;15.85;4.25;;;;;;;;;;5051664;28;20053;-74
2022/05/15 08:26:28;;;;;;;17.02;4.72;;;;;;;;;;5055167;28;20096;-75
2022/05/15 08:28:54;;;;;;;21.63;4.43;;;;;;;;;;5054956;28;20040;-74
2022/05/15 08:31:21;;;;;;;18.23;4.65;;;;;;;;;;5055904;28;20046;-75
2022/05/15 08:33:48;;;;;;;17.08;5.22;;;;;;;;;;5053730;28;20073;-74
2022/05/15 08:36:14;;;;;;;17.90;4.32;;;;;;;;;;5051870;28;20081;-74
2022/05/15 08:38:40;;;;;;;21.30;4.65;;;;;;;;;;5051961;28;20068;-75
2022/05/15 08:41:25;;;;;;;15.45;4.10;;;;;;;;;;5032990;28;20511;-75
2022/05/15 08:43:55;;;;;;;16.13;4.35;;;;;;;;;;5031300;28;20398;-75
2022/05/15 08:46:37;;;;;;;19.83;4.35;;;;;;;;;;5008202;28;20073;-75
2022/05/15 08:49:18;;;;;;;14.68;4.07;;;;;;;;;;5032167;28;20061;-75
2022/05/15 08:51:53;;;;;;;20.25;4.72;;;;;;;;;;5013683;28;20395;-75
2022/05/15 08:54:19;;;;;;;15.75;4.63;;;;;;;;;;5037795;28;20492;-75
2022/05/15 08:56:47;;;;;;;15.95;4.68;;;;;;;;;;5030699;28;20045;-76
2022/05/15 08:59:20;;;;;;;17.23;4.85;;;;;;;;;;5053802;28;20068;-75
2022/05/15 09:01:47;;;;;;;20.00;4.78;;;;;;;;;;5056603;28;20109;-75
2022/05/15 09:04:13;;;;;;;16.40;4.28;;;;;;;;;;5038232;28;20045;-74
2022/05/15 09:06:53;;;;;;;16.75;4.18;;;;;;;;;;5042645;28;20112;-75
2022/05/15 09:09:31;;;;;;;17.13;3.88;;;;;;;;;;5051006;28;20038;-74
2022/05/15 09:12:03;;;;;;;16.63;4.10;;;;;;;;;;5045659;28;20224;-74
2022/05/15 09:14:29;;;;;;;14.20;4.45;;;;;;;;;;5051451;28;20032;-75
2022/05/15 09:16:58;;;;;;;16.48;4.30;;;;;;;;;;5050209;28;20105;-74
2022/05/15 09:19:24;;;;;;;21.40;4.80;;;;;;;;;;5046213;28;20103;-76
2022/05/15 09:21:55;;;;;;;13.85;3.92;;;;;;;;;;5051934;28;20041;-74
2022/05/15 09:24:28;;;;;;;17.27;3.70;;;;;;;;;;5054438;28;20103;-74
2022/05/15 09:26:54;;;;;;;18.65;4.32;;;;;;;;;;5053199;28;20037;-74
2022/05/15 09:29:28;;;;;;;14.93;3.88;;;;;;;;;;5052765;28;20041;-75
2022/05/15 09:31:54;;;;;;;14.05;4.15;;;;;;;;;;5050102;28;20034;-75
2022/05/15 09:34:21;;;;;;;18.83;4.40;;;;;;;;;;5049833;28;20052;-73
2022/05/15 09:36:49;;;;;;;16.80;4.22;;;;;;;;;;5041179;28;20045;-74
2022/05/15 09:39:25;;;;;;;17.27;3.97;;;;;;;;;;5057006;28;20053;-73
2022/05/15 09:44:46;;;;;;;18.90;4.40;;;;;;;;;;5056810;28;20084;-74
2022/05/15 09:47:15;;;;;;;19.08;4.47;;;;;;;;;;5033536;28;20084;-75
2022/05/15 09:49:42;;;;;;;18.10;4.70;;;;;;;;;;5041058;28;20041;-75
2022/05/15 09:52:11;;;;;;;16.42;4.07;;;;;;;;;;5036575;28;20569;-74
2022/05/15 09:54:38;;;;;;;15.27;4.10;;;;;;;;;;5057968;28;20491;-75
2022/05/15 09:57:10;;;;;;;14.50;3.88;;;;;;;;;;5053021;28;20045;-75
2022/05/15 09:59:36;;;;;;;14.98;4.22;;;;;;;;;;5059210;28;20109;-75
2022/05/15 10:02:02;;;;;;;14.10;4.20;;;;;;;;;;5025232;28;20037;-75
2022/05/15 10:04:32;;;;;;;16.73;4.65;;;;;;;;;;5056533;28;20045;-75
2022/05/15 10:07:00;;;;;;;16.00;4.40;;;;;;;;;;5056112;28;20056;-75
2022/05/15 10:09:40;;;;;;;19.60;4.05;;;;;;;;;;5059393;28;20042;-75
2022/05/15 10:12:06;;;;;;;17.27;4.88;;;;;;;;;;5053854;28;20041;-75
2022/05/15 10:14:40;;;;;;;19.10;4.22;;;;;;;;;;5041745;28;20072;-74
2022/05/15 10:17:07;;;;;;;16.13;4.10;;;;;;;;;;5055833;28;20130;-74
2022/05/15 10:19:41;;;;;;;15.68;4.40;;;;;;;;;;5057845;28;20064;-75
2022/05/15 10:22:34;;;;;;;16.25;4.32;;;;;;;;;;5054254;28;20107;-75
2022/05/15 10:25:20;;;;;;;16.83;4.35;;;;;;;;;;5014737;28;20049;-76
2022/05/15 10:27:49;;;;;;;16.13;4.32;;;;;;;;;;5041416;28;20069;-75
2022/05/15 10:30:21;;;;;;;16.55;4.40;;;;;;;;;;5040571;28;20050;-76
2022/05/15 10:32:47;;;;;;;17.38;4.30;;;;;;;;;;5036245;28;20050;-76
2022/05/15 10:35:15;;;;;;;17.38;4.38;;;;;;;;;;5046833;28;20120;-74
2022/05/15 10:37:59;;;;;;;15.07;4.35;;;;;;;;;;5033144;28;20054;-76
2022/05/15 10:40:34;;;;;;;14.90;4.03;;;;;;;;;;5032319;28;20042;-76
2022/05/15 10:43:19;;;;;;;15.27;4.07;;;;;;;;;;5038485;28;20050;-76
2022/05/15 10:45:45;;;;;;;17.17;4.18;;;;;;;;;;5047891;28;20049;-75
2022/05/15 10:48:30;;;;;;;17.42;4.63;;;;;;;;;;5045379;28;20065;-75
2022/05/15 10:51:01;;;;;;;13.52;3.88;;;;;;;;;;5025833;28;20045;-76
2022/05/15 10:59:14;;;;;;;14.20;3.70;;;;;;;;;;5039179;28;20515;-75
2022/05/15 11:01:48;;;;;;;16.10;4.15;;;;;;;;;;5038600;28;20038;-74
2022/05/15 11:04:15;;;;;;;16.05;3.58;;;;;;;;;;5038987;28;20049;-74
2022/05/15 11:06:44;;;;;;;16.05;4.22;;;;;;;;;;5020627;28;20052;-75
2022/05/15 11:09:30;;;;;;;13.60;3.72;;;;;;;;;;5038353;28;20057;-74
2022/05/15 11:12:02;;;;;;;16.33;3.83;;;;;;;;;;5038675;28;20045;-74
2022/05/15 11:14:36;;;;;;;13.93;4.00;;;;;;;;;;5038870;28;20042;-74
2022/05/15 11:17:02;;;;;;;15.15;3.63;;;;;;;;;;5038845;28;20132;-74
2022/05/15 11:19:35;;;;;;;17.67;4.10;;;;;;;;;;5020564;28;20084;-74
2022/05/15 11:22:01;;;;;;;16.60;4.25;;;;;;;;;;5038009;28;20049;-74
2022/05/15 11:24:46;;;;;;;19.30;4.47;;;;;;;;;;5038037;28;20128;-74
2022/05/15 11:27:12;;;;;;;15.98;4.22;;;;;;;;;;5037585;28;20123;-74
2022/05/15 11:29:42;;;;;;;18.52;4.63;;;;;;;;;;5037858;28;20045;-75
2022/05/15 11:32:27;;;;;;;12.50;3.80;;;;;;;;;;5020701;28;20045;-74
2022/05/15 11:35:11;;;;;;;14.07;3.75;;;;;;;;;;5038753;28;20072;-73
2022/05/15 11:37:37;;;;;;;18.17;4.30;;;;;;;;;;5020402;28;20042;-74
2022/05/15 11:40:04;;;;;;;14.70;4.03;;;;;;;;;;5037726;28;20045;-73
2022/05/15 11:42:30;;;;;;;19.40;4.80;;;;;;;;;;5038445;28;20045;-73
2022/05/15 11:45:16;;;;;;;15.35;4.00;;;;;;;;;;5037954;28;20049;-74
2022/05/15 11:47:57;;;;;;;13.85;3.75;;;;;;;;;;5037436;28;20052;-74
2022/05/15 11:50:36;;;;;;;14.50;3.30;;;;;;;;;;5037268;28;20491;-74
2022/05/15 11:53:05;;;;;;;15.85;4.03;;;;;;;;;;5036953;28;20451;-75
2022/05/15 11:55:39;;;;;;;14.27;4.18;;;;;;;;;;5036420;28;20065;-74
2022/05/15 11:58:16;;;;;;;15.52;4.10;;;;;;;;;;5035766;28;20048;-73
2022/05/15 12:00:42;;;;;;;17.35;4.38;;;;;;;;;;5035937;28;20057;-72
2022/05/15 12:03:28;;;;;;;17.35;4.35;;;;;;;;;;5035569;28;20396;-74
2022/05/15 12:06:02;;;;;;;15.95;4.25;;;;;;;;;;5035900;28;20045;-74
2022/05/15 12:08:30;;;;;;;15.98;4.10;;;;;;;;;;5036610;28;20398;-73
2022/05/15 12:10:58;;;;;;;15.13;4.15;;;;;;;;;;5036307;28;20052;-73
2022/05/15 12:13:30;;;;;;;14.70;3.83;;;;;;;;;;5036155;28;20052;-74
2022/05/15 12:16:15;;;;;;;14.95;4.10;;;;;;;;;;5036084;28;20053;-74
2022/05/15 12:18:43;;;;;;;13.77;3.75;;;;;;;;;;5036419;28;20046;-74
2022/05/15 12:21:10;;;;;;;11.07;3.42;;;;;;;;;;5036418;28;20053;-73
2022/05/15 12:23:37;;;;;;;14.18;3.72;;;;;;;;;;5036573;28;20092;-74
2022/05/15 12:26:30;;;;;;;15.13;3.90;;;;;;;;;;5036225;28;20569;-74
2022/05/15 12:29:04;;;;;;;12.50;3.70;;;;;;;;;;5018275;28;20129;-74
2022/05/15 12:31:41;;;;;;;15.63;3.80;;;;;;;;;;5036445;28;20391;-74
2022/05/15 12:34:09;;;;;;;14.45;3.28;;;;;;;;;;5036030;28;20057;-73
2022/05/15 12:36:37;;;;;;;12.63;3.17;;;;;;;;;;5018450;28;20049;-74
2022/05/15 12:39:04;;;;;;;14.65;3.25;;;;;;;;;;5037229;28;20053;-75
2022/05/15 12:41:38;;;;;;;10.65;2.97;;;;;;;;;;5036936;28;20059;-73
2022/05/15 12:44:08;;;;;;;14.18;3.20;;;;;;;;;;5036566;28;20057;-74
2022/05/15 12:46:35;;;;;;;11.15;3.20;;;;;;;;;;5018998;28;20083;-73
2022/05/15 12:49:02;;;;;;;14.77;3.20;;;;;;;;;;5036448;28;20443;-73
2022/05/15 12:51:32;;;;;;;13.05;3.45;;;;;;;;;;5037040;28;20085;-73
2022/05/15 12:53:59;;;;;;;12.30;3.63;;;;;;;;;;5018757;28;20183;-73
2022/05/15 12:56:32;;;;;;;13.98;3.42;;;;;;;;;;5037186;28;20038;-74
2022/05/15 12:59:07;;;;;;;14.85;3.90;;;;;;;;;;5036214;28;20049;-74
2022/05/15 13:01:33;;;;;;;14.13;3.92;;;;;;;;;;5036429;28;20109;-74
2022/05/15 13:04:01;;;;;;;14.10;3.88;;;;;;;;;;5036338;28;20057;-74
2022/05/15 13:06:29;;;;;;;12.98;3.28;;;;;;;;;;5036609;28;20058;-73
2022/05/15 13:08:58;;;;;;;13.77;3.40;;;;;;;;;;5037366;28;20099;-74
2022/05/15 13:11:25;;;;;;;14.00;3.20;;;;;;;;;;5036592;28;20099;-74
2022/05/15 13:13:53;;;;;;;15.88;3.63;;;;;;;;;;5035918;28;20491;-74
2022/05/15 13:16:21;;;;;;;13.88;3.83;;;;;;;;;;5035983;28;20053;-74
2022/05/15 13:18:49;;;;;;;15.02;3.45;;;;;;;;;;5018070;28;20041;-74
2022/05/15 13:21:21;;;;;;;17.83;3.58;;;;;;;;;;5036036;28;20056;-74
2022/05/15 13:23:47;;;;;;;13.73;3.75;;;;;;;;;;5036239;28;20512;-74
2022/05/15 13:26:16;;;;;;;13.93;3.65;;;;;;;;;;5035771;28;20060;-74
2022/05/15 13:28:42;;;;;;;15.63;3.38;;;;;;;;;;5036016;28;20041;-75
2022/05/15 13:31:11;;;;;;;14.93;3.90;;;;;;;;;;5019632;28;20041;-74
2022/05/15 13:33:38;;;;;;;14.63;4.07;;;;;;;;;;5018531;28;20053;-74
2022/05/15 13:36:04;;;;;;;14.25;3.70;;;;;;;;;;5035740;28;20037;-74
2022/05/15 13:44:06;;;;;;;11.73;2.92;;;;;;;;;;5035638;28;20053;-74
2022/05/15 13:46:34;;;;;;;11.35;3.65;;;;;;;;;;5035100;28;20049;-74
2022/05/15 13:49:02;;;;;;;11.48;3.67;;;;;;;;;;5035696;28;20049;-73
2022/05/15 13:51:29;;;;;;;12.57;3.72;;;;;;;;;;5035844;28;20096;-73
2022/05/15 13:54:26;;;;;;;12.50;3.55;;;;;;;;;;5035801;28;20079;-75
2022/05/15 13:56:55;;;;;;;14.30;3.40;;;;;;;;;;5028217;28;20101;-74
2022/05/15 13:59:41;;;;;;;14.32;3.83;;;;;;;;;;5036859;28;20045;-74
2022/05/15 14:02:07;;;;;;;12.10;2.95;;;;;;;;;;5018924;28;20052;-74
2022/05/15 14:04:33;;;;;;;14.20;3.20;;;;;;;;;;5036774;28;20060;-74
2022/05/15 14:06:59;;;;;;;12.05;3.20;;;;;;;;;;5036687;28;20057;-75
2022/05/15 14:09:40;;;;;;;11.38;3.15;;;;;;;;;;5035873;28;20046;-75
2022/05/15 14:12:09;;;;;;;11.07;3.05;;;;;;;;;;5035403;28;20038;-74
2022/05/15 14:14:44;;;;;;;11.23;3.35;;;;;;;;;;5036011;28;20050;-74
2022/05/15 14:17:14;;;;;;;11.15;3.00;;;;;;;;;;5034882;28;20124;-74
2022/05/15 14:19:54;;;;;;;13.40;3.27;;;;;;;;;;5036304;28;20072;-74
2022/05/15 14:22:21;;;;;;;14.37;3.37;;;;;;;;;;5036790;28;20133;-75
2022/05/15 14:24:47;;;;;;;14.30;3.15;;;;;;;;;;5036638;28;20057;-74
2022/05/15 14:27:13;;;;;;;13.20;3.63;;;;;;;;;;5039179;28;20041;-74
2022/05/15 14:29:40;;;;;;;10.90;3.22;;;;;;;;;;5039086;28;20064;-75
2022/05/15 14:32:08;;;;;;;11.48;2.67;;;;;;;;;;5038453;28;20560;-74
2022/05/15 14:34:34;;;;;;;11.30;2.70;;;;;;;;;;5037064;28;20104;-74
2022/05/15 14:37:00;;;;;;;11.57;2.60;;;;;;;;;;5039298;28;20602;-74
2022/05/15 14:39:26;;;;;;;11.85;3.45;;;;;;;;;;5039608;28;20057;-74
2022/05/15 14:41:52;;;;;;;10.77;2.80;;;;;;;;;;5021460;28;20045;-74
2022/05/15 14:44:18;;;;;;;13.30;2.67;;;;;;;;;;5039526;28;20419;-75
2022/05/15 14:46:45;;;;;;;11.93;3.08;;;;;;;;;;5022716;28;20045;-75
2022/05/15 14:49:11;;;;;;;10.07;2.65;;;;;;;;;;5040331;28;20068;-75
2022/05/15 14:51:40;;;;;;;10.90;2.28;;;;;;;;;;5038977;28;20468;-75
2022/05/15 14:54:06;;;;;;;9.48;2.42;;;;;;;;;;5039816;28;20045;-74
2022/05/15 14:56:33;;;;;;;10.63;2.80;;;;;;;;;;5039179;28;20053;-75
2022/05/15 14:59:01;;;;;;;10.45;2.60;;;;;;;;;;5039403;28;20041;-74
2022/05/15 15:01:28;;;;;;;11.60;2.55;;;;;;;;;;5039259;28;20052;-74
2022/05/15 15:03:54;;;;;;;9.23;2.53;;;;;;;;;;5020938;28;20049;-74
2022/05/15 15:06:21;;;;;;;12.35;2.83;;;;;;;;;;5038162;28;20057;-75